Impacts METAR Board
IDs:

KDEN - Denver Intl, CO, US

Updated at: 0800 UTC 19 Jun 2018
Potential Impact None Slight Moderate High
Time 18/20Z 18/21Z 18/22Z 18/23Z 19/00Z 19/01Z 19/02Z 19/03Z 19/04Z 19/05Z 19/06Z 19/07Z 19/08Z
Temp74 78 80 80 81 77 69 68 65 63 63 60 60
Dewpt58 59 59 58 58 59 58 59 57 57 56 56 55
Altim30.05 30.02 30.01 29.99 29.96 29.96 29.99 30.02 30.06 30.05 30.08 30.09 30.12
VIS10 10 10 10 10 10 9 10 10 10 10 10 10
CIG-- -- -- -- -- 120 140 90 24 23 13 19 17
CoverSCTFEWFEWFEWSCTBKNBKNBKNBKNOVCOVCOVCOVC
FltCatVFRVFRVFRVFRVFRVFRVFRVFRMVFRMVFRMVFRMVFRMVFR
WX--------------VCTSVCTSVCTS------
WDir10080708060103102010606090100
WSpd8 13 12 14 18 16 22 15 10 10 12 11 12
WGst-- 20 21 -- 26 -- 27 27 17 -- -- -- --
Raw hourly METARs
KDEN 181953Z 10008KT 10SM FEW025 SCT035 SCT120 23/14 A3005 RMK AO2 SLP108 T02330144
KDEN 182053Z 08013G20KT 10SM FEW030 FEW055 26/15 A3002 RMK AO2 SLP096 TCU DSNT S T02560150 58021
KDEN 182153Z 07012G21KT 10SM FEW080 FEW140 27/15 A3001 RMK AO2 SLP091 TCU DSNT SW T02670150
KDEN 182253Z 08014KT 10SM FEW080 FEW140 27/14 A2999 RMK AO2 PK WND 09029/2240 SLP083 T02670144
KDEN 182353Z 06018G26KT 10SM FEW080 SCT140 SCT200 27/14 A2996 RMK AO2 PK WND 07026/2320 LTG DSNT W-N SLP072 T02720144 10278 20189 58018
KDEN 190053Z 01016KT 10SM FEW060 SCT090 BKN120 BKN200 25/15 A2996 RMK AO2 PK WND 07027/0004 LTG DSNT N AND NW SLP077 FRQ LTGCG DSNT NW-N CB DSNT NW-N MOV E T02500150
KDEN 190153Z 31022G27KT 9SM SCT090 BKN140 BKN200 21/14 A2999 RMK AO2 PK WND 31029/0127 LTG DSNT W-NE SLP094 CONS LTGICCG DSNT W-N-NE CB DSNT W-N-NE MOV NE T02060144
KDEN 190253Z 02015G27KT 10SM VCTS FEW030 BKN090CB BKN140 BKN200 20/15 A3002 RMK AO2 PK WND 34030/0235 LTG DSNT ALQDS SLP102 CONS LTGICCG VC N AND DSNT W-N-NE TS VC N MOV NE CB DSNT W-N-NE MOV NE T02000150 53017
KDEN 190353Z 01010G17KT 10SM VCTS BKN024 BKN090CB BKN140 BKN200 18/14 A3006 RMK AO2 WSHFT 0254 LTG DSNT NW-NE TSB07E22 SLP119 CONS LTGICCG VC NW-NE TS VC NW-NE MOV NE T01830139
KDEN 190453Z 06010KT 10SM VCTS BKN023CB OVC110 17/14 A3005 RMK AO2 LTG DSNT NW-NE SLP111 CONS LTGICCG VC NW-NE TS VC NW-NE MOV NE VCSH T01720139
KDEN 190557Z 06012KT 10SM OVC013 17/13 A3008 RMK AO2 LTG DSNT N AND NE T01720133 $
KDEN 190653Z 09011KT 10SM OVC019 16/13 A3009 RMK AO2 LTG DSNT N AND NE SLP123 T01560133 402780122 $
KDEN 190753Z 10012KT 10SM SCT009 OVC017 16/13 A3012 RMK AO2 LTG DSNT N SLP129 OCNL LTGICCCCG DSNT N CB DSNT N MOV NE VCSH T01560128 $



Page loaded:  08:53 UTC  |   01:53 AM Pacific  |   02:53 AM Mountain  |   03:53 AM Central  |   04:53 AM Eastern

 

ADVISORIES

FORECASTS

FORECASTS

OBSERVATIONS

USER TOOLS

ABOUT US